Time;durP1;ratioP1;P1;durP2;ratioP2;P2;SDS_P1;SDS_P2;PMS_P1;PMS_P2;Temp;Humidity;BMP_temperature;BMP_pressure;BME280_temperature;BME280_humidity;BME280_pressure;Samples;Min_cycle;Max_cycle;Signal;HPM_P1;HPM_P2
2022/10/02 00:00:22;;;;;;;23.37;4.63;;;;;;;;;;5036533;28;20180;-85
2022/10/02 00:02:48;;;;;;;21.30;5.00;;;;;;;;;;5053115;28;20195;-85
2022/10/02 00:05:27;;;;;;;16.23;4.33;;;;;;;;;;5035920;28;20220;-86
2022/10/02 00:08:24;;;;;;;17.00;4.53;;;;;;;;;;5036160;28;20177;-86
2022/10/02 00:10:50;;;;;;;16.50;3.90;;;;;;;;;;5029042;28;20304;-85
2022/10/02 00:13:36;;;;;;;12.40;3.30;;;;;;;;;;5036946;28;20292;-85
2022/10/02 00:16:04;;;;;;;10.77;3.27;;;;;;;;;;5032331;28;20188;-85
2022/10/02 00:18:32;;;;;;;11.47;3.20;;;;;;;;;;5036027;28;20197;-85
2022/10/02 00:21:01;;;;;;;13.43;3.77;;;;;;;;;;5035854;28;20184;-88
2022/10/02 00:23:34;;;;;;;13.23;3.50;;;;;;;;;;5035784;28;20224;-89
2022/10/02 00:26:22;;;;;;;10.17;3.10;;;;;;;;;;5035446;28;20240;-89
2022/10/02 00:29:02;;;;;;;10.93;2.77;;;;;;;;;;5035580;28;20196;-82
2022/10/02 00:31:37;;;;;;;10.43;2.57;;;;;;;;;;5036897;28;20176;-83
2022/10/02 00:34:09;;;;;;;9.23;2.80;;;;;;;;;;5036923;28;20172;-83
2022/10/02 00:36:48;;;;;;;10.53;3.13;;;;;;;;;;5034858;28;20180;-82
2022/10/02 00:39:26;;;;;;;9.63;3.33;;;;;;;;;;5035077;28;20208;-83
2022/10/02 00:42:11;;;;;;;11.37;3.23;;;;;;;;;;5035914;28;20180;-83
2022/10/02 00:44:42;;;;;;;10.53;3.10;;;;;;;;;;5035421;28;20288;-83
2022/10/02 00:47:08;;;;;;;9.50;2.67;;;;;;;;;;5035531;28;20223;-83
2022/10/02 00:49:34;;;;;;;6.73;2.47;;;;;;;;;;5035323;28;20177;-83
2022/10/02 00:52:19;;;;;;;7.90;2.60;;;;;;;;;;5035306;28;20184;-82
2022/10/02 00:54:54;;;;;;;8.93;2.40;;;;;;;;;;5020135;28;20266;-83
2022/10/02 00:57:40;;;;;;;7.33;2.03;;;;;;;;;;5036350;28;20184;-84
2022/10/02 01:00:11;;;;;;;9.37;2.53;;;;;;;;;;5035258;28;20184;-85
2022/10/02 01:02:49;;;;;;;6.77;2.07;;;;;;;;;;5034947;28;20188;-85
2022/10/02 01:05:15;;;;;;;8.10;2.07;;;;;;;;;;5025610;28;20191;-85
2022/10/02 01:07:42;;;;;;;7.20;2.00;;;;;;;;;;5035005;28;20189;-85
2022/10/02 01:10:12;;;;;;;7.20;2.60;;;;;;;;;;5036270;28;20188;-85
2022/10/02 01:12:39;;;;;;;7.67;2.53;;;;;;;;;;5036131;28;20181;-85
2022/10/02 01:15:12;;;;;;;9.13;2.33;;;;;;;;;;5035323;28;20239;-85
2022/10/02 01:17:38;;;;;;;7.33;2.67;;;;;;;;;;5015544;28;20189;-82
2022/10/02 01:20:05;;;;;;;10.60;2.90;;;;;;;;;;5031656;28;20260;-82
2022/10/02 01:22:31;;;;;;;7.90;2.97;;;;;;;;;;5025899;28;20180;-82
2022/10/02 01:24:58;;;;;;;10.83;3.13;;;;;;;;;;5053099;28;20237;-82
2022/10/02 01:27:25;;;;;;;14.13;3.80;;;;;;;;;;5057291;28;20203;-82
2022/10/02 01:29:55;;;;;;;14.27;4.90;;;;;;;;;;5058232;28;20187;-83
2022/10/02 01:32:24;;;;;;;14.37;4.80;;;;;;;;;;5058358;28;20175;-82
2022/10/02 01:34:51;;;;;;;11.43;4.13;;;;;;;;;;5057848;28;20168;-86
2022/10/02 01:37:17;;;;;;;16.43;6.03;;;;;;;;;;5040929;28;20240;-86
2022/10/02 01:39:43;;;;;;;21.47;6.43;;;;;;;;;;5043367;28;20283;-85
2022/10/02 01:42:09;;;;;;;19.90;7.00;;;;;;;;;;5043671;28;20274;-86
2022/10/02 01:44:35;;;;;;;19.87;5.57;;;;;;;;;;5057348;28;20282;-86
2022/10/02 01:47:19;;;;;;;17.30;5.43;;;;;;;;;;5057939;28;20213;-86
2022/10/02 01:50:03;;;;;;;21.43;5.03;;;;;;;;;;5057214;28;20179;-83
2022/10/02 01:52:35;;;;;;;13.60;4.47;;;;;;;;;;5075708;28;20171;-83
2022/10/02 01:55:16;;;;;;;17.10;5.57;;;;;;;;;;5075194;28;20187;-82
2022/10/02 01:58:01;;;;;;;19.10;6.33;;;;;;;;;;5075202;28;20198;-82
2022/10/02 02:00:29;;;;;;;29.57;9.00;;;;;;;;;;5074993;28;20182;-82
2022/10/02 02:03:12;;;;;;;33.70;13.53;;;;;;;;;;5057068;28;20187;-82
2022/10/02 02:05:38;;;;;;;32.93;13.87;;;;;;;;;;5057580;28;20211;-82
2022/10/02 02:08:24;;;;;;;34.53;14.43;;;;;;;;;;5057172;28;20175;-87
2022/10/02 02:11:26;;;;;;;30.27;15.17;;;;;;;;;;5050608;28;20183;-89
2022/10/02 02:14:00;;;;;;;43.17;19.03;;;;;;;;;;4997044;28;20208;-88
2022/10/02 02:16:32;;;;;;;46.80;19.73;;;;;;;;;;5047963;28;20198;-90
2022/10/02 02:19:07;;;;;;;50.10;22.30;;;;;;;;;;5056797;28;20179;-88
2022/10/02 02:21:34;;;;;;;48.77;23.30;;;;;;;;;;5054737;28;20190;-85
2022/10/02 02:24:02;;;;;;;49.37;23.37;;;;;;;;;;5046072;28;20210;-88
2022/10/02 02:26:29;;;;;;;47.40;23.57;;;;;;;;;;5049272;28;20270;-88
2022/10/02 02:28:59;;;;;;;45.40;21.93;;;;;;;;;;5052218;28;20262;-88
2022/10/02 02:31:28;;;;;;;44.97;21.57;;;;;;;;;;5050858;28;20180;-88
2022/10/02 02:33:58;;;;;;;46.50;21.77;;;;;;;;;;5063386;28;20186;-87
2022/10/02 02:36:26;;;;;;;46.50;21.93;;;;;;;;;;5056185;28;20183;-89
2022/10/02 02:38:58;;;;;;;43.33;21.80;;;;;;;;;;5056663;28;20240;-88
2022/10/02 02:41:26;;;;;;;58.10;22.23;;;;;;;;;;5056180;28;20183;-85
2022/10/02 02:43:58;;;;;;;47.83;22.97;;;;;;;;;;5050108;28;20191;-85
2022/10/02 02:46:27;;;;;;;57.70;22.80;;;;;;;;;;5056784;28;20214;-88
2022/10/02 02:49:00;;;;;;;53.67;21.20;;;;;;;;;;5056261;28;20182;-89
2022/10/02 02:51:32;;;;;;;50.83;20.93;;;;;;;;;;5041465;28;20267;-88
2022/10/02 02:54:02;;;;;;;48.93;20.83;;;;;;;;;;5049408;28;20187;-90
2022/10/02 02:56:30;;;;;;;48.07;19.77;;;;;;;;;;5055631;28;20188;-82
2022/10/02 02:59:06;;;;;;;46.63;18.43;;;;;;;;;;5065520;28;20191;-82
2022/10/02 03:01:32;;;;;;;46.37;16.50;;;;;;;;;;5056055;28;20182;-82
2022/10/02 03:03:58;;;;;;;35.37;16.57;;;;;;;;;;5050738;28;20293;-83
2022/10/02 03:06:37;;;;;;;42.87;16.33;;;;;;;;;;5040241;28;20302;-82
2022/10/02 03:09:04;;;;;;;40.70;13.70;;;;;;;;;;5056403;28;20183;-83
2022/10/02 03:11:46;;;;;;;35.33;13.70;;;;;;;;;;5073517;28;20258;-82
2022/10/02 03:14:15;;;;;;;38.23;13.87;;;;;;;;;;5065321;28;20214;-82
2022/10/02 03:17:00;;;;;;;34.13;12.63;;;;;;;;;;5070519;28;20202;-82
2022/10/02 03:19:40;;;;;;;48.37;13.20;;;;;;;;;;5073838;28;20205;-83
2022/10/02 03:22:06;;;;;;;36.83;11.53;;;;;;;;;;5074985;28;20260;-83
2022/10/02 03:24:38;;;;;;;39.90;12.47;;;;;;;;;;5073552;28;20235;-83
2022/10/02 03:27:11;;;;;;;33.40;11.30;;;;;;;;;;5051340;28;20233;-83
2022/10/02 03:29:44;;;;;;;40.80;11.43;;;;;;;;;;5047180;28;20202;-83
2022/10/02 03:32:12;;;;;;;43.13;11.40;;;;;;;;;;5074053;28;20225;-83
2022/10/02 03:34:38;;;;;;;37.93;11.13;;;;;;;;;;5055864;28;20175;-83
2022/10/02 03:37:05;;;;;;;40.60;11.03;;;;;;;;;;5039807;28;20219;-83
2022/10/02 03:39:31;;;;;;;38.43;11.03;;;;;;;;;;5064665;22;20226;-84
2022/10/02 03:41:57;;;;;;;38.83;10.20;;;;;;;;;;5068196;28;20247;-84
2022/10/02 03:44:23;;;;;;;33.97;10.03;;;;;;;;;;5035766;28;20184;-88
2022/10/02 03:46:49;;;;;;;41.90;10.73;;;;;;;;;;5069323;28;20215;-81
2022/10/02 03:49:15;;;;;;;42.00;13.73;;;;;;;;;;5044931;28;20180;-82
2022/10/02 03:51:41;;;;;;;51.57;16.03;;;;;;;;;;5052984;28;20180;-82
2022/10/02 03:54:15;;;;;;;66.57;17.30;;;;;;;;;;5052690;28;20168;-81
2022/10/02 03:56:41;;;;;;;58.73;15.07;;;;;;;;;;5049031;28;20271;-82
2022/10/02 03:59:13;;;;;;;43.73;14.13;;;;;;;;;;5056298;28;20243;-82
2022/10/02 04:01:42;;;;;;;43.20;12.73;;;;;;;;;;5052463;28;20188;-82
2022/10/02 04:04:16;;;;;;;48.63;12.20;;;;;;;;;;5053553;28;20188;-85
2022/10/02 04:06:50;;;;;;;40.43;11.17;;;;;;;;;;5053637;28;20214;-85
2022/10/02 04:09:29;;;;;;;42.13;9.90;;;;;;;;;;5053020;28;20199;-85
2022/10/02 04:12:00;;;;;;;38.40;9.70;;;;;;;;;;5046987;28;20207;-85
2022/10/02 04:14:34;;;;;;;43.90;9.13;;;;;;;;;;5066092;28;20215;-85
2022/10/02 04:17:15;;;;;;;44.80;9.03;;;;;;;;;;5064075;28;20188;-85
2022/10/02 04:19:41;;;;;;;32.73;8.67;;;;;;;;;;5059745;28;20187;-85
2022/10/02 04:22:11;;;;;;;41.60;9.23;;;;;;;;;;5072455;28;20203;-84
2022/10/02 04:24:58;;;;;;;35.17;7.97;;;;;;;;;;5049301;28;20191;-84
2022/10/02 04:27:36;;;;;;;34.67;8.23;;;;;;;;;;5056313;28;20233;-84
2022/10/02 04:30:12;;;;;;;40.20;8.47;;;;;;;;;;5059713;28;20177;-84
2022/10/02 04:32:38;;;;;;;44.37;8.90;;;;;;;;;;5061574;28;20179;-84
2022/10/02 04:35:23;;;;;;;40.23;9.77;;;;;;;;;;5055221;28;20207;-84
2022/10/02 04:38:01;;;;;;;47.40;8.60;;;;;;;;;;5053291;28;20199;-85
2022/10/02 04:40:49;;;;;;;42.77;9.27;;;;;;;;;;5053436;28;20251;-84
2022/10/02 04:43:18;;;;;;;35.13;8.80;;;;;;;;;;5065654;28;20206;-84
2022/10/02 04:45:51;;;;;;;34.70;9.13;;;;;;;;;;5057132;28;20294;-84
2022/10/02 04:48:24;;;;;;;44.20;9.47;;;;;;;;;;5055338;28;20180;-84
2022/10/02 04:51:05;;;;;;;40.73;8.97;;;;;;;;;;5057860;28;20176;-85
2022/10/02 04:53:37;;;;;;;49.40;9.77;;;;;;;;;;5055645;28;20176;-84
2022/10/02 04:56:12;;;;;;;48.47;9.77;;;;;;;;;;5055093;28;20191;-84
2022/10/02 04:58:41;;;;;;;53.40;9.63;;;;;;;;;;5056046;28;20190;-85
2022/10/02 05:01:28;;;;;;;57.83;9.90;;;;;;;;;;5058029;28;20187;-84
2022/10/02 05:04:19;;;;;;;42.67;9.10;;;;;;;;;;5057648;28;20198;-85
2022/10/02 05:06:56;;;;;;;49.07;9.97;;;;;;;;;;5055238;28;20223;-85
2022/10/02 05:09:29;;;;;;;41.10;9.57;;;;;;;;;;5062034;28;20269;-85
2022/10/02 05:11:58;;;;;;;55.33;9.80;;;;;;;;;;5057096;28;20180;-82
2022/10/02 05:14:27;;;;;;;52.97;10.27;;;;;;;;;;5046297;28;20180;-82
2022/10/02 05:17:07;;;;;;;53.13;10.20;;;;;;;;;;5054069;28;20184;-85
2022/10/02 05:19:52;;;;;;;47.53;10.37;;;;;;;;;;5054523;28;20508;-85
2022/10/02 05:22:37;;;;;;;50.90;10.70;;;;;;;;;;5057428;28;20194;-85
2022/10/02 05:25:20;;;;;;;38.10;9.63;;;;;;;;;;5071960;28;20182;-84
2022/10/02 05:28:04;;;;;;;49.67;11.07;;;;;;;;;;5055864;28;20172;-89
2022/10/02 05:30:34;;;;;;;50.70;11.43;;;;;;;;;;5056809;28;20208;-88
2022/10/02 05:33:00;;;;;;;46.27;10.87;;;;;;;;;;5054264;28;20182;-86
2022/10/02 05:35:46;;;;;;;49.13;10.47;;;;;;;;;;5060325;28;20184;-89
2022/10/02 05:38:30;;;;;;;49.53;10.23;;;;;;;;;;5055974;28;20178;-87
2022/10/02 05:41:05;;;;;;;53.87;11.57;;;;;;;;;;5053134;28;20184;-89
2022/10/02 05:43:34;;;;;;;48.80;10.60;;;;;;;;;;5054251;28;20175;-85
2022/10/02 05:46:12;;;;;;;51.13;11.47;;;;;;;;;;5063804;28;20216;-85
2022/10/02 05:48:46;;;;;;;42.70;10.30;;;;;;;;;;5053169;28;20230;-85
2022/10/02 05:51:18;;;;;;;56.17;10.87;;;;;;;;;;5054832;28;20184;-85
2022/10/02 05:53:55;;;;;;;54.90;10.23;;;;;;;;;;5058748;28;20190;-85
2022/10/02 05:56:43;;;;;;;47.93;9.90;;;;;;;;;;5060174;28;20179;-84
2022/10/02 05:59:30;;;;;;;43.70;10.43;;;;;;;;;;5056024;28;20184;-85
2022/10/02 06:01:58;;;;;;;51.17;11.00;;;;;;;;;;5042707;28;20195;-82
2022/10/02 06:04:28;;;;;;;45.07;10.17;;;;;;;;;;5054257;28;20188;-81
2022/10/02 06:06:55;;;;;;;39.90;10.30;;;;;;;;;;5053857;28;20211;-81
2022/10/02 06:09:34;;;;;;;36.87;10.27;;;;;;;;;;5055377;28;20190;-81
2022/10/02 06:12:08;;;;;;;50.63;10.80;;;;;;;;;;5053910;28;20168;-81
2022/10/02 06:14:43;;;;;;;42.10;9.70;;;;;;;;;;5055143;28;20179;-81
2022/10/02 06:17:24;;;;;;;42.73;10.50;;;;;;;;;;5054806;28;20204;-84
2022/10/02 06:19:58;;;;;;;45.43;9.43;;;;;;;;;;5055064;28;20176;-84
2022/10/02 06:22:26;;;;;;;51.53;10.50;;;;;;;;;;5053721;28;20180;-84
2022/10/02 06:24:54;;;;;;;45.20;10.57;;;;;;;;;;5053391;28;20184;-84
2022/10/02 06:27:30;;;;;;;36.23;9.30;;;;;;;;;;5053650;28;20242;-85
2022/10/02 06:30:04;;;;;;;35.70;8.37;;;;;;;;;;5053574;28;20180;-85
2022/10/02 06:32:33;;;;;;;37.33;7.93;;;;;;;;;;5054036;28;20187;-85
2022/10/02 06:35:00;;;;;;;30.23;8.27;;;;;;;;;;5053663;28;20180;-81
2022/10/02 06:37:32;;;;;;;24.63;8.17;;;;;;;;;;5053720;28;20310;-82
2022/10/02 06:40:13;;;;;;;30.50;7.67;;;;;;;;;;5065769;28;20238;-82
2022/10/02 06:42:49;;;;;;;36.87;8.43;;;;;;;;;;5073707;28;20213;-82
2022/10/02 06:45:31;;;;;;;33.67;7.87;;;;;;;;;;5070335;28;20175;-81
2022/10/02 06:48:06;;;;;;;36.63;8.53;;;;;;;;;;5033925;28;20219;-81
2022/10/02 06:50:43;;;;;;;43.03;8.93;;;;;;;;;;5033766;28;20207;-85
2022/10/02 06:53:15;;;;;;;33.57;8.13;;;;;;;;;;5049028;28;20180;-85
2022/10/02 06:55:51;;;;;;;33.73;8.27;;;;;;;;;;5061317;28;20239;-85
2022/10/02 06:58:23;;;;;;;34.43;8.10;;;;;;;;;;5053752;28;20171;-85
2022/10/02 07:01:09;;;;;;;31.67;8.23;;;;;;;;;;5054609;28;20210;-82
2022/10/02 07:03:35;;;;;;;38.07;8.70;;;;;;;;;;5032890;28;20192;-81
2022/10/02 07:06:01;;;;;;;30.60;7.97;;;;;;;;;;5053021;28;20207;-82
2022/10/02 07:08:27;;;;;;;29.77;8.23;;;;;;;;;;5053259;28;20241;-84
2022/10/02 07:11:08;;;;;;;30.47;8.43;;;;;;;;;;5053775;28;20211;-85
2022/10/02 07:13:39;;;;;;;28.07;7.63;;;;;;;;;;5053049;28;20196;-85
2022/10/02 07:16:14;;;;;;;28.73;8.03;;;;;;;;;;5053072;28;20187;-84
2022/10/02 07:19:06;;;;;;;26.97;7.10;;;;;;;;;;5053878;28;20183;-85
2022/10/02 07:21:32;;;;;;;29.87;8.03;;;;;;;;;;5050809;28;20233;-85
2022/10/02 07:24:17;;;;;;;29.60;7.50;;;;;;;;;;5052707;28;20183;-88
2022/10/02 07:26:47;;;;;;;24.67;6.97;;;;;;;;;;5050903;28;20211;-86
2022/10/02 07:29:18;;;;;;;25.33;7.30;;;;;;;;;;5054110;28;20196;-88
2022/10/02 07:31:53;;;;;;;25.17;7.50;;;;;;;;;;5053339;28;20176;-86
2022/10/02 07:34:31;;;;;;;25.85;8.10;;;;;;;;;;5053238;28;20408;-88
2022/10/02 07:37:13;;;;;;;26.90;6.83;;;;;;;;;;5054057;28;20186;-88
2022/10/02 07:40:05;;;;;;;19.13;6.03;;;;;;;;;;5065476;28;20219;-90
2022/10/02 07:42:50;;;;;;;21.17;5.53;;;;;;;;;;5064145;28;20185;-81
2022/10/02 07:45:31;;;;;;;21.00;6.60;;;;;;;;;;5049443;28;20207;-84
2022/10/02 07:47:57;;;;;;;18.73;5.67;;;;;;;;;;5057917;28;20207;-84
2022/10/02 07:50:32;;;;;;;17.87;5.70;;;;;;;;;;5057378;28;20206;-85
2022/10/02 07:52:58;;;;;;;18.97;5.83;;;;;;;;;;5056027;28;20180;-84
2022/10/02 07:55:25;;;;;;;20.07;6.07;;;;;;;;;;5065164;28;20207;-84
2022/10/02 07:57:58;;;;;;;23.20;5.30;;;;;;;;;;5056945;28;20242;-89
2022/10/02 08:00:26;;;;;;;15.97;5.10;;;;;;;;;;5073281;28;20206;-88
2022/10/02 08:03:11;;;;;;;25.47;5.43;;;;;;;;;;5069319;28;20254;-88
2022/10/02 08:05:53;;;;;;;21.73;5.70;;;;;;;;;;5063230;28;20194;-87
2022/10/02 08:08:30;;;;;;;20.83;6.60;;;;;;;;;;5072063;28;20427;-88
2022/10/02 08:11:06;;;;;;;18.57;5.40;;;;;;;;;;5058171;28;20180;-89
2022/10/02 08:13:34;;;;;;;20.93;5.83;;;;;;;;;;5056363;28;20184;-85
2022/10/02 08:16:03;;;;;;;19.53;5.20;;;;;;;;;;5040442;28;20211;-85
2022/10/02 08:18:32;;;;;;;16.80;5.47;;;;;;;;;;5055628;28;20171;-85
2022/10/02 08:20:59;;;;;;;24.13;6.13;;;;;;;;;;5072697;28;20215;-88
2022/10/02 08:23:28;;;;;;;17.87;5.67;;;;;;;;;;5054908;28;20188;-89
2022/10/02 08:26:00;;;;;;;20.47;5.60;;;;;;;;;;5056820;28;20200;-88
2022/10/02 08:28:42;;;;;;;15.50;4.37;;;;;;;;;;5055300;28;20271;-88
2022/10/02 08:31:13;;;;;;;16.27;4.37;;;;;;;;;;5056003;28;20176;-82
2022/10/02 08:33:39;;;;;;;16.23;4.30;;;;;;;;;;5055599;28;20176;-82
2022/10/02 08:36:17;;;;;;;13.60;4.23;;;;;;;;;;5053094;28;20184;-82
2022/10/02 08:38:48;;;;;;;13.60;4.00;;;;;;;;;;5056615;28;20273;-82
2022/10/02 08:41:14;;;;;;;22.57;4.80;;;;;;;;;;5056010;28;20203;-82
2022/10/02 08:43:59;;;;;;;49.17;9.10;;;;;;;;;;5052209;28;20208;-82
2022/10/02 08:46:45;;;;;;;20.25;5.15;;;;;;;;;;5068834;28;20512;-82
2022/10/02 08:49:23;;;;;;;12.98;3.90;;;;;;;;;;5054365;28;20415;-82
2022/10/02 08:51:56;;;;;;;12.85;4.07;;;;;;;;;;5071287;28;20418;-81
2022/10/02 08:54:22;;;;;;;14.70;3.90;;;;;;;;;;5065793;28;20415;-85
2022/10/02 08:56:51;;;;;;;10.47;3.17;;;;;;;;;;5055128;28;20176;-85
2022/10/02 08:59:26;;;;;;;11.27;3.37;;;;;;;;;;5057991;28;20179;-81
2022/10/02 09:02:08;;;;;;;11.13;3.50;;;;;;;;;;5072155;28;20175;-82
2022/10/02 09:04:57;;;;;;;14.07;3.43;;;;;;;;;;5056378;28;20176;-88
2022/10/02 09:07:38;;;;;;;10.90;3.23;;;;;;;;;;5063821;28;20207;-87
2022/10/02 09:10:19;;;;;;;15.20;3.63;;;;;;;;;;5055087;28;20176;-88
2022/10/02 09:12:48;;;;;;;15.30;3.37;;;;;;;;;;5075388;28;20186;-88
2022/10/02 09:15:15;;;;;;;17.50;3.80;;;;;;;;;;5063907;28;20173;-87
2022/10/02 09:17:53;;;;;;;11.50;3.13;;;;;;;;;;5055963;28;20191;-85
2022/10/02 09:20:38;;;;;;;13.97;3.53;;;;;;;;;;5054957;28;20183;-88
2022/10/02 09:23:13;;;;;;;13.27;3.30;;;;;;;;;;5055487;28;20183;-89
2022/10/02 09:26:08;;;;;;;11.77;3.67;;;;;;;;;;5054815;28;20229;-89
2022/10/02 09:28:52;;;;;;;12.37;3.20;;;;;;;;;;5050605;28;20223;-87
2022/10/02 09:31:39;;;;;;;14.70;3.87;;;;;;;;;;5051576;28;20184;-88
2022/10/02 09:34:23;;;;;;;11.03;3.10;;;;;;;;;;5037284;28;20195;-86
2022/10/02 09:37:09;;;;;;;13.00;3.33;;;;;;;;;;5063966;28;20282;-85
2022/10/02 09:39:54;;;;;;;13.97;3.33;;;;;;;;;;5054724;28;20323;-85
2022/10/02 09:42:22;;;;;;;12.67;3.13;;;;;;;;;;5055699;28;20191;-85
2022/10/02 09:45:20;;;;;;;12.93;3.73;;;;;;;;;;5055281;28;20184;-85
2022/10/02 09:48:04;;;;;;;12.77;3.20;;;;;;;;;;5055580;28;20303;-86
2022/10/02 09:50:32;;;;;;;12.23;3.20;;;;;;;;;;5055233;28;20230;-86
2022/10/02 09:53:02;;;;;;;16.50;3.80;;;;;;;;;;5070479;28;20467;-85
2022/10/02 09:55:48;;;;;;;13.80;3.43;;;;;;;;;;5069223;28;20195;-85
2022/10/02 09:58:20;;;;;;;12.60;3.30;;;;;;;;;;5070966;28;20190;-88
2022/10/02 10:00:50;;;;;;;16.87;3.60;;;;;;;;;;5051490;28;20184;-89
2022/10/02 10:03:35;;;;;;;15.70;3.40;;;;;;;;;;5054003;28;20172;-88
2022/10/02 10:06:22;;;;;;;14.93;3.47;;;;;;;;;;5060977;28;20203;-89
2022/10/02 10:09:00;;;;;;;17.00;4.00;;;;;;;;;;5066595;28;20401;-90
2022/10/02 10:11:28;;;;;;;13.50;3.27;;;;;;;;;;5051191;28;20415;-88
2022/10/02 10:14:12;;;;;;;10.33;2.60;;;;;;;;;;5055242;28;20187;-86
2022/10/02 10:16:40;;;;;;;13.13;3.60;;;;;;;;;;5051489;28;20188;-89
2022/10/02 10:19:12;;;;;;;14.80;3.30;;;;;;;;;;5037679;28;20288;-88
2022/10/02 10:21:57;;;;;;;13.67;3.30;;;;;;;;;;5055304;28;20187;-88
2022/10/02 10:24:23;;;;;;;12.97;3.17;;;;;;;;;;5053776;28;20313;-88
2022/10/02 10:27:08;;;;;;;15.40;3.23;;;;;;;;;;5053709;28;20290;-83
2022/10/02 10:29:38;;;;;;;10.87;3.03;;;;;;;;;;5053418;28;20187;-83
2022/10/02 10:32:17;;;;;;;11.03;2.80;;;;;;;;;;5053345;28;20234;-88
2022/10/02 10:34:44;;;;;;;7.47;2.50;;;;;;;;;;5069951;28;20180;-89
2022/10/02 10:40:24;;;;;;;10.53;2.83;;;;;;;;;;5032396;28;20231;-88
2022/10/02 10:43:06;;;;;;;11.17;2.90;;;;;;;;;;5053595;28;20184;-89
2022/10/02 10:45:51;;;;;;;10.73;3.00;;;;;;;;;;5052105;28;20416;-84
2022/10/02 10:48:20;;;;;;;11.60;2.63;;;;;;;;;;5069968;28;20198;-83
2022/10/02 10:50:59;;;;;;;10.93;3.13;;;;;;;;;;5053412;28;20427;-84
2022/10/02 10:53:36;;;;;;;10.13;3.13;;;;;;;;;;5053615;28;20427;-84
2022/10/02 10:56:08;;;;;;;9.07;2.40;;;;;;;;;;5054088;28;20176;-83
2022/10/02 10:59:11;;;;;;;10.13;2.80;;;;;;;;;;5068165;28;20184;-83
2022/10/02 11:01:43;;;;;;;10.38;3.10;;;;;;;;;;4967178;28;20434;-83
2022/10/02 11:04:09;;;;;;;10.70;3.10;;;;;;;;;;5043767;28;20424;-84
2022/10/02 11:06:55;;;;;;;11.95;3.08;;;;;;;;;;5064176;28;20647;-83
2022/10/02 11:09:46;;;;;;;12.55;3.30;;;;;;;;;;5053037;28;20469;-84
2022/10/02 11:12:20;;;;;;;12.45;3.03;;;;;;;;;;5053154;28;20408;-84
2022/10/02 11:15:00;;;;;;;9.53;2.70;;;;;;;;;;5069791;28;20184;-88
2022/10/02 11:17:35;;;;;;;9.30;2.90;;;;;;;;;;5069481;28;20217;-87
2022/10/02 11:20:21;;;;;;;11.38;3.25;;;;;;;;;;5052250;28;20400;-88
2022/10/02 11:23:01;;;;;;;9.10;2.90;;;;;;;;;;5047469;28;20442;-88
2022/10/02 11:25:34;;;;;;;13.90;3.22;;;;;;;;;;5051442;28;20408;-88
2022/10/02 11:28:06;;;;;;;10.90;2.88;;;;;;;;;;5052643;28;20428;-88
2022/10/02 11:30:33;;;;;;;11.75;2.88;;;;;;;;;;5052494;28;20408;-87
2022/10/02 11:33:02;;;;;;;11.07;3.10;;;;;;;;;;5052234;28;20415;-89
2022/10/02 11:35:41;;;;;;;10.20;3.03;;;;;;;;;;5052098;28;20428;-82
2022/10/02 11:38:13;;;;;;;10.10;3.00;;;;;;;;;;5067393;22;20450;-83
2022/10/02 11:40:39;;;;;;;10.63;3.10;;;;;;;;;;5071240;28;20437;-83
2022/10/02 11:43:41;;;;;;;13.25;3.15;;;;;;;;;;5072822;28;20494;-82
2022/10/02 11:46:20;;;;;;;9.68;2.88;;;;;;;;;;4991559;28;20444;-82
2022/10/02 11:49:06;;;;;;;8.55;2.78;;;;;;;;;;5062465;28;20423;-82
2022/10/02 11:51:56;;;;;;;10.68;2.80;;;;;;;;;;5072775;28;20402;-80
2022/10/02 11:54:29;;;;;;;10.23;2.85;;;;;;;;;;5073405;28;20410;-80
2022/10/02 11:57:07;;;;;;;13.37;3.67;;;;;;;;;;5073463;28;20175;-81
2022/10/02 11:59:39;;;;;;;9.70;2.63;;;;;;;;;;5073617;28;20175;-81
2022/10/02 12:02:11;;;;;;;9.82;2.90;;;;;;;;;;5072038;28;20427;-80
2022/10/02 12:04:39;;;;;;;13.47;3.30;;;;;;;;;;5089294;28;20183;-81
2022/10/02 12:07:05;;;;;;;13.85;3.10;;;;;;;;;;5073094;28;20508;-88
2022/10/02 12:09:53;;;;;;;10.17;3.03;;;;;;;;;;5072328;28;20261;-88
2022/10/02 12:12:37;;;;;;;11.82;3.40;;;;;;;;;;5072477;28;20405;-87
2022/10/02 12:15:22;;;;;;;12.30;3.47;;;;;;;;;;5088292;28;20421;-87
2022/10/02 12:17:57;;;;;;;12.63;3.40;;;;;;;;;;5083849;28;20409;-88
2022/10/02 12:26:57;;;;;;;12.00;3.17;;;;;;;;;;5054953;28;20616;-88
2022/10/02 12:29:42;;;;;;;11.40;3.17;;;;;;;;;;5073505;28;20172;-87
2022/10/02 12:32:22;;;;;;;8.00;2.50;;;;;;;;;;5072326;28;20182;-87
2022/10/02 12:35:07;;;;;;;9.80;2.83;;;;;;;;;;5076158;28;20179;-87
2022/10/02 12:37:42;;;;;;;10.00;2.60;;;;;;;;;;5075998;28;20270;-87
2022/10/02 12:40:18;;;;;;;11.97;2.83;;;;;;;;;;5092609;28;20226;-83
2022/10/02 12:42:53;;;;;;;10.90;2.80;;;;;;;;;;5077186;28;20177;-83
2022/10/02 12:45:30;;;;;;;9.80;2.73;;;;;;;;;;5089029;28;20182;-83
2022/10/02 12:48:05;;;;;;;11.53;2.90;;;;;;;;;;5071460;28;20217;-83
2022/10/02 12:50:39;;;;;;;7.00;2.50;;;;;;;;;;5075322;28;20206;-83
2022/10/02 12:53:22;;;;;;;9.47;2.63;;;;;;;;;;5052756;28;20183;-83
2022/10/02 12:55:48;;;;;;;8.67;2.43;;;;;;;;;;5067753;28;20206;-83
2022/10/02 12:58:21;;;;;;;7.93;2.47;;;;;;;;;;5076396;28;20171;-80
2022/10/02 13:01:06;;;;;;;9.77;2.80;;;;;;;;;;5058493;28;20262;-80
2022/10/02 13:03:35;;;;;;;7.93;2.43;;;;;;;;;;5061892;28;20186;-81
2022/10/02 13:06:09;;;;;;;9.33;2.47;;;;;;;;;;5095591;28;20202;-80
2022/10/02 13:09:04;;;;;;;6.17;2.20;;;;;;;;;;5084290;28;20183;-80
2022/10/02 13:11:49;;;;;;;9.77;2.50;;;;;;;;;;5052443;28;20279;-80
2022/10/02 13:14:34;;;;;;;10.37;3.07;;;;;;;;;;5056165;28;20187;-83
2022/10/02 13:17:04;;;;;;;9.77;2.40;;;;;;;;;;5074845;28;20214;-82
2022/10/02 13:19:39;;;;;;;8.53;2.40;;;;;;;;;;5072428;28;20220;-82
2022/10/02 13:22:13;;;;;;;12.07;2.50;;;;;;;;;;5070468;28;20185;-82
2022/10/02 13:24:58;;;;;;;12.70;2.67;;;;;;;;;;5063923;28;20237;-82
2022/10/02 13:27:43;;;;;;;11.00;2.45;;;;;;;;;;5066353;28;20434;-82
2022/10/02 13:30:14;;;;;;;10.75;2.85;;;;;;;;;;5057080;28;20409;-83
2022/10/02 13:32:45;;;;;;;9.68;2.85;;;;;;;;;;5075126;28;20398;-84
2022/10/02 13:35:21;;;;;;;10.10;2.63;;;;;;;;;;5057181;28;20402;-83
2022/10/02 13:37:47;;;;;;;10.23;3.25;;;;;;;;;;5057367;28;20422;-83
2022/10/02 13:40:24;;;;;;;11.57;3.15;;;;;;;;;;5074830;28;20442;-84
2022/10/02 13:43:03;;;;;;;11.35;3.10;;;;;;;;;;5073693;28;20478;-83
2022/10/02 13:45:52;;;;;;;10.02;2.90;;;;;;;;;;5074214;28;20406;-83
2022/10/02 13:48:33;;;;;;;12.35;3.40;;;;;;;;;;5074566;28;20413;-87
2022/10/02 13:51:05;;;;;;;10.03;2.80;;;;;;;;;;5093256;28;20183;-88
2022/10/02 13:53:35;;;;;;;12.73;2.63;;;;;;;;;;5077551;28;20171;-88
2022/10/02 13:56:07;;;;;;;9.57;2.63;;;;;;;;;;5068889;28;20206;-88
2022/10/02 13:58:47;;;;;;;8.10;2.70;;;;;;;;;;5083756;28;20585;-87
2022/10/02 14:01:18;;;;;;;11.13;3.20;;;;;;;;;;5027089;28;20407;-82
2022/10/02 14:04:00;;;;;;;11.65;2.70;;;;;;;;;;5014637;28;20455;-81
2022/10/02 14:06:36;;;;;;;8.95;2.70;;;;;;;;;;5010235;28;20441;-83
2022/10/02 14:09:20;;;;;;;10.35;3.35;;;;;;;;;;5010457;28;20432;-89
2022/10/02 14:11:59;;;;;;;8.13;2.70;;;;;;;;;;5026487;28;20411;-89
2022/10/02 14:14:28;;;;;;;9.45;2.70;;;;;;;;;;5026163;28;20435;-84
2022/10/02 14:17:07;;;;;;;9.35;2.60;;;;;;;;;;5050352;28;20451;-83
2022/10/02 14:19:52;;;;;;;10.63;2.40;;;;;;;;;;5040778;28;20199;-89
2022/10/02 14:22:18;;;;;;;8.83;2.17;;;;;;;;;;5014553;28;20192;-84
2022/10/02 14:25:03;;;;;;;8.53;2.70;;;;;;;;;;5044031;28;20177;-84
2022/10/02 14:27:47;;;;;;;11.73;3.50;;;;;;;;;;5043277;28;20212;-84
2022/10/02 14:30:21;;;;;;;11.33;2.50;;;;;;;;;;5027494;28;20184;-84
2022/10/02 14:32:47;;;;;;;10.80;2.73;;;;;;;;;;5029733;28;20227;-84
2022/10/02 14:35:22;;;;;;;9.63;2.33;;;;;;;;;;5041834;28;20207;-84
2022/10/02 14:38:08;;;;;;;9.63;2.60;;;;;;;;;;5035335;28;20236;-83
2022/10/02 14:40:43;;;;;;;9.40;2.80;;;;;;;;;;5016442;28;20244;-83
2022/10/02 14:43:17;;;;;;;12.33;2.70;;;;;;;;;;5010617;28;20181;-83
2022/10/02 14:46:04;;;;;;;11.20;2.80;;;;;;;;;;5026711;28;20185;-83
2022/10/02 14:48:48;;;;;;;9.33;2.53;;;;;;;;;;5013375;28;20184;-83
2022/10/02 14:51:17;;;;;;;8.37;2.50;;;;;;;;;;5030512;28;20192;-83
2022/10/02 14:53:47;;;;;;;8.87;2.67;;;;;;;;;;5030134;28;20230;-81
2022/10/02 14:56:32;;;;;;;8.50;2.63;;;;;;;;;;5042009;28;20180;-81
2022/10/02 14:59:08;;;;;;;8.73;2.67;;;;;;;;;;5010008;28;20201;-82
2022/10/02 15:01:41;;;;;;;10.37;2.80;;;;;;;;;;5023964;28;20172;-82
2022/10/02 15:04:07;;;;;;;8.03;2.90;;;;;;;;;;5026428;28;20268;-82
2022/10/02 15:06:43;;;;;;;8.33;2.60;;;;;;;;;;5033713;28;20184;-82
2022/10/02 15:09:15;;;;;;;10.20;2.47;;;;;;;;;;5041503;28;20177;-81
2022/10/02 15:11:41;;;;;;;10.13;2.92;;;;;;;;;;5023606;28;20520;-82
2022/10/02 15:14:18;;;;;;;8.23;2.50;;;;;;;;;;5010594;28;20217;-81
2022/10/02 15:27:13;;;;;;;10.87;2.80;;;;;;;;;;5587290;22;20229;-84
2022/10/02 15:29:39;;;;;;;12.15;2.90;;;;;;;;;;5014171;28;20438;-82
2022/10/02 15:32:05;;;;;;;10.47;3.10;;;;;;;;;;5015957;28;20185;-83
2022/10/02 15:34:34;;;;;;;13.48;2.90;;;;;;;;;;5015265;28;20435;-83